Time;durP1;ratioP1;P1;durP2;ratioP2;P2;SDS_P1;SDS_P2;PMS_P1;PMS_P2;Temp;Humidity;BMP_temperature;BMP_pressure;BME280_temperature;BME280_humidity;BME280_pressure;Samples;Min_cycle;Max_cycle;Signal;HPM_P1;HPM_P2
2022/06/15 00:00:41;;;;;;;6.47;3.47;;;;;;;;;;5072127;28;20040;-63
2022/06/15 00:03:09;;;;;;;7.38;3.67;;;;;;;;;;5072222;28;20029;-62
2022/06/15 00:05:35;;;;;;;8.40;3.45;;;;;;;;;;5072474;28;20103;-63
2022/06/15 00:08:01;;;;;;;10.10;3.90;;;;;;;;;;5071973;28;20032;-63
2022/06/15 00:10:27;;;;;;;8.10;3.17;;;;;;;;;;5071437;28;20077;-63
2022/06/15 00:12:54;;;;;;;7.30;2.83;;;;;;;;;;5072116;28;20085;-63
2022/06/15 00:15:20;;;;;;;8.45;3.60;;;;;;;;;;5072261;28;20025;-63
2022/06/15 00:17:46;;;;;;;8.23;3.33;;;;;;;;;;5071899;28;20361;-63
2022/06/15 00:20:12;;;;;;;7.95;2.97;;;;;;;;;;5072143;28;20501;-63
2022/06/15 00:22:40;;;;;;;7.57;3.88;;;;;;;;;;5072150;28;20522;-63
2022/06/15 00:25:06;;;;;;;8.27;3.63;;;;;;;;;;5063432;28;20033;-63
2022/06/15 00:27:32;;;;;;;8.50;3.67;;;;;;;;;;5052062;28;20033;-63
2022/06/15 00:29:58;;;;;;;10.50;3.97;;;;;;;;;;5050598;28;20052;-63
2022/06/15 00:32:25;;;;;;;10.13;4.13;;;;;;;;;;5052040;28;20099;-63
2022/06/15 00:34:51;;;;;;;12.77;3.88;;;;;;;;;;5051726;28;20021;-63
2022/06/15 00:37:17;;;;;;;7.90;4.28;;;;;;;;;;5051723;28;20166;-63
2022/06/15 00:39:44;;;;;;;8.60;4.10;;;;;;;;;;5057220;28;20060;-63
2022/06/15 00:42:12;;;;;;;7.75;3.95;;;;;;;;;;5071953;28;20035;-63
2022/06/15 00:44:38;;;;;;;10.43;4.05;;;;;;;;;;5071632;28;20098;-63
2022/06/15 00:47:17;;;;;;;6.25;3.75;;;;;;;;;;5071714;28;20435;-63
2022/06/15 00:49:48;;;;;;;7.47;3.90;;;;;;;;;;5071627;28;20105;-63
2022/06/15 00:52:16;;;;;;;12.02;4.68;;;;;;;;;;5070149;28;20122;-63
2022/06/15 00:54:44;;;;;;;10.93;4.50;;;;;;;;;;5070581;28;20028;-63
2022/06/15 00:57:11;;;;;;;9.15;3.95;;;;;;;;;;5071480;28;20060;-63
2022/06/15 00:59:46;;;;;;;8.23;3.65;;;;;;;;;;5070449;28;20062;-63
2022/06/15 01:02:12;;;;;;;11.85;4.47;;;;;;;;;;5071696;28;20112;-63
2022/06/15 01:04:40;;;;;;;10.13;3.83;;;;;;;;;;5064067;28;20393;-63
2022/06/15 01:07:17;;;;;;;8.50;4.38;;;;;;;;;;5050128;28;20056;-63
2022/06/15 01:10:13;;;;;;;9.85;4.40;;;;;;;;;;5050400;28;20029;-63
2022/06/15 01:12:58;;;;;;;8.45;4.47;;;;;;;;;;5038268;28;20094;-63
2022/06/15 01:15:34;;;;;;;5.97;3.75;;;;;;;;;;5051769;28;20033;-63
2022/06/15 01:18:00;;;;;;;6.90;4.07;;;;;;;;;;5051401;28;20035;-63
2022/06/15 01:20:33;;;;;;;12.77;4.40;;;;;;;;;;5050172;28;20041;-63
2022/06/15 01:23:11;;;;;;;8.93;3.80;;;;;;;;;;5049943;28;20037;-63
2022/06/15 01:25:41;;;;;;;7.55;4.13;;;;;;;;;;5051717;28;20033;-63
2022/06/15 01:28:07;;;;;;;10.23;4.03;;;;;;;;;;5051282;28;20028;-63
2022/06/15 01:30:39;;;;;;;7.13;3.83;;;;;;;;;;5051786;28;20048;-63
2022/06/15 01:33:08;;;;;;;5.45;3.45;;;;;;;;;;5053554;28;20025;-63
2022/06/15 01:35:35;;;;;;;7.88;3.90;;;;;;;;;;5055142;28;20017;-63
2022/06/15 01:38:22;;;;;;;9.98;4.35;;;;;;;;;;5066978;28;20043;-63
2022/06/15 01:40:52;;;;;;;5.43;3.35;;;;;;;;;;5075192;28;20082;-63
2022/06/15 01:43:19;;;;;;;11.07;3.78;;;;;;;;;;5074919;28;20020;-63
2022/06/15 01:45:47;;;;;;;7.03;3.60;;;;;;;;;;5074786;28;20029;-63
2022/06/15 01:48:17;;;;;;;7.72;3.72;;;;;;;;;;5073358;28;20024;-63
2022/06/15 01:50:48;;;;;;;5.93;3.28;;;;;;;;;;5073537;28;20142;-63
2022/06/15 01:53:17;;;;;;;9.98;3.47;;;;;;;;;;5073224;28;20041;-63
2022/06/15 01:55:55;;;;;;;6.25;3.30;;;;;;;;;;5073746;28;20021;-63
2022/06/15 01:58:24;;;;;;;8.10;3.30;;;;;;;;;;5072124;28;20054;-63
2022/06/15 02:01:02;;;;;;;6.65;3.40;;;;;;;;;;5073309;28;20070;-63
2022/06/15 02:03:35;;;;;;;7.80;3.60;;;;;;;;;;5073204;28;20028;-63
2022/06/15 02:06:04;;;;;;;7.95;3.53;;;;;;;;;;5072611;28;20032;-63
2022/06/15 02:08:37;;;;;;;4.78;3.20;;;;;;;;;;5073030;28;20054;-63
2022/06/15 02:11:06;;;;;;;5.80;3.38;;;;;;;;;;5073002;28;20032;-63
2022/06/15 02:13:41;;;;;;;7.80;3.47;;;;;;;;;;5073116;28;20024;-63
2022/06/15 02:16:15;;;;;;;4.78;3.60;;;;;;;;;;5072872;28;20032;-63
2022/06/15 02:18:46;;;;;;;7.63;4.07;;;;;;;;;;5070729;28;20120;-63
2022/06/15 02:21:15;;;;;;;7.00;3.40;;;;;;;;;;5052586;28;20037;-63
2022/06/15 02:23:42;;;;;;;5.85;3.30;;;;;;;;;;5052859;28;20406;-63
2022/06/15 02:26:10;;;;;;;11.23;4.22;;;;;;;;;;5052642;28;20036;-63
2022/06/15 02:28:42;;;;;;;8.27;3.87;;;;;;;;;;5052804;28;20139;-63
2022/06/15 02:31:08;;;;;;;12.05;5.00;;;;;;;;;;5052348;28;20275;-63
2022/06/15 02:33:45;;;;;;;8.40;3.53;;;;;;;;;;5059370;28;20468;-63
2022/06/15 02:36:11;;;;;;;7.50;3.70;;;;;;;;;;5073757;28;20036;-63
2022/06/15 02:38:37;;;;;;;11.98;3.85;;;;;;;;;;5072347;28;20036;-63
2022/06/15 02:41:04;;;;;;;5.22;3.55;;;;;;;;;;5072053;28;20047;-63
2022/06/15 02:43:35;;;;;;;5.05;3.25;;;;;;;;;;5072504;28;20248;-63
2022/06/15 02:46:02;;;;;;;10.45;3.40;;;;;;;;;;5073494;28;20032;-63
2022/06/15 02:48:29;;;;;;;6.78;3.72;;;;;;;;;;5056591;28;20029;-63
2022/06/15 02:51:04;;;;;;;6.07;3.30;;;;;;;;;;5072252;28;20025;-63
2022/06/15 02:53:33;;;;;;;5.38;3.63;;;;;;;;;;5072202;28;20032;-63
2022/06/15 02:56:00;;;;;;;7.07;3.67;;;;;;;;;;5072172;28;20032;-63
2022/06/15 02:58:29;;;;;;;9.40;3.65;;;;;;;;;;5071759;28;20140;-63
2022/06/15 03:00:57;;;;;;;7.60;3.22;;;;;;;;;;5072083;28;20029;-63
2022/06/15 03:03:27;;;;;;;4.63;3.30;;;;;;;;;;5071479;28;20029;-63
2022/06/15 03:06:08;;;;;;;6.90;3.42;;;;;;;;;;5051965;28;20481;-63
2022/06/15 03:08:35;;;;;;;5.30;3.22;;;;;;;;;;5051890;28;20028;-63
2022/06/15 03:11:07;;;;;;;8.40;3.20;;;;;;;;;;5051765;28;20028;-63
2022/06/15 03:13:33;;;;;;;9.48;3.22;;;;;;;;;;5064993;28;20400;-63
2022/06/15 03:16:01;;;;;;;6.82;3.33;;;;;;;;;;5064847;28;20033;-63
2022/06/15 03:18:28;;;;;;;16.15;5.00;;;;;;;;;;5051363;28;20033;-63
2022/06/15 03:20:58;;;;;;;8.55;3.45;;;;;;;;;;5051670;28;20518;-63
2022/06/15 03:23:24;;;;;;;6.35;3.42;;;;;;;;;;5051553;28;20419;-63
2022/06/15 03:25:55;;;;;;;5.63;3.35;;;;;;;;;;5069572;28;20181;-63
2022/06/15 03:28:21;;;;;;;5.70;3.47;;;;;;;;;;5071388;28;20036;-63
2022/06/15 03:30:47;;;;;;;5.90;3.20;;;;;;;;;;5071593;28;20037;-63
2022/06/15 03:33:14;;;;;;;4.22;2.80;;;;;;;;;;5060580;28;20078;-63
2022/06/15 03:35:43;;;;;;;5.65;3.20;;;;;;;;;;5051591;28;20024;-63
2022/06/15 03:38:18;;;;;;;7.00;3.25;;;;;;;;;;5051363;28;20435;-63
2022/06/15 03:40:51;;;;;;;;;;;;;;;;;;5051845;28;20033;-63
2022/06/15 03:43:18;;;;;;;8.88;3.60;;;;;;;;;;5052297;28;19908;-63
2022/06/15 03:45:44;;;;;;;7.72;3.90;;;;;;;;;;5051061;28;20039;-63
2022/06/15 03:48:11;;;;;;;8.73;4.13;;;;;;;;;;5070722;28;20464;-63
2022/06/15 03:50:38;;;;;;;9.07;3.70;;;;;;;;;;5071017;28;20476;-63
2022/06/15 03:53:06;;;;;;;5.70;3.58;;;;;;;;;;5070420;28;20029;-63
2022/06/15 03:55:37;;;;;;;7.25;3.22;;;;;;;;;;5071163;28;20037;-63
2022/06/15 03:58:13;;;;;;;6.45;3.03;;;;;;;;;;5071117;28;20090;-63
2022/06/15 04:00:39;;;;;;;5.25;3.17;;;;;;;;;;5067855;28;20397;-63
2022/06/15 04:03:11;;;;;;;6.13;2.92;;;;;;;;;;5068800;28;20039;-63
2022/06/15 04:06:13;;;;;;;5.35;3.20;;;;;;;;;;5050963;28;20508;-63
2022/06/15 04:08:43;;;;;;;5.05;2.97;;;;;;;;;;5053371;28;20025;-63
2022/06/15 04:14:21;;;;;;;6.93;3.38;;;;;;;;;;5058156;28;20025;-63
2022/06/15 04:17:08;;;;;;;7.35;3.42;;;;;;;;;;5050731;28;20037;-63
2022/06/15 04:22:40;;;;;;;7.63;3.63;;;;;;;;;;5050106;28;20059;-63
2022/06/15 04:25:09;;;;;;;6.13;3.92;;;;;;;;;;5064281;28;20029;-63
2022/06/15 04:27:37;;;;;;;6.72;3.53;;;;;;;;;;5058822;28;20032;-63
2022/06/15 04:30:04;;;;;;;7.50;3.33;;;;;;;;;;5061920;28;20021;-63
2022/06/15 04:32:32;;;;;;;4.25;3.13;;;;;;;;;;5067561;28;20017;-63
2022/06/15 04:35:00;;;;;;;9.38;4.05;;;;;;;;;;5068902;28;20024;-63
2022/06/15 04:37:27;;;;;;;6.47;3.30;;;;;;;;;;5064381;28;20052;-63
2022/06/15 04:39:58;;;;;;;5.38;3.20;;;;;;;;;;5057583;28;20131;-63
2022/06/15 04:42:24;;;;;;;5.07;3.38;;;;;;;;;;5053702;28;20086;-63
2022/06/15 04:44:52;;;;;;;8.07;3.33;;;;;;;;;;5061455;28;20119;-63
2022/06/15 04:47:19;;;;;;;9.88;4.78;;;;;;;;;;5049958;28;20079;-63
2022/06/15 04:49:45;;;;;;;6.10;3.53;;;;;;;;;;5053671;28;20025;-63
2022/06/15 04:52:13;;;;;;;12.05;3.47;;;;;;;;;;5055748;28;20047;-63
2022/06/15 04:54:39;;;;;;;6.03;3.38;;;;;;;;;;5067997;28;20028;-63
2022/06/15 04:57:05;;;;;;;8.73;3.33;;;;;;;;;;5066079;28;20043;-63
2022/06/15 04:59:31;;;;;;;5.43;2.95;;;;;;;;;;5065145;28;20055;-62
2022/06/15 05:01:58;;;;;;;5.82;3.05;;;;;;;;;;5063728;28;20025;-63
2022/06/15 05:04:26;;;;;;;8.82;3.38;;;;;;;;;;5070056;28;20052;-63
2022/06/15 05:06:53;;;;;;;8.27;3.55;;;;;;;;;;5064884;28;20060;-63
2022/06/15 05:09:19;;;;;;;8.63;3.65;;;;;;;;;;5056359;28;20100;-63
2022/06/15 05:11:48;;;;;;;7.38;3.28;;;;;;;;;;5063674;28;20025;-63
2022/06/15 05:14:16;;;;;;;7.22;3.17;;;;;;;;;;5056592;28;20032;-63
2022/06/15 05:16:45;;;;;;;14.32;3.95;;;;;;;;;;5067017;28;20024;-63
2022/06/15 05:19:15;;;;;;;11.00;4.50;;;;;;;;;;5062033;28;20115;-63
2022/06/15 05:21:42;;;;;;;7.80;3.83;;;;;;;;;;5053536;28;20476;-63
2022/06/15 05:24:09;;;;;;;7.70;4.10;;;;;;;;;;5053414;28;20484;-63
2022/06/15 05:26:54;;;;;;;8.75;4.13;;;;;;;;;;5065156;28;20068;-63
2022/06/15 05:29:22;;;;;;;7.72;4.07;;;;;;;;;;5074308;28;20021;-63
2022/06/15 05:31:53;;;;;;;11.23;5.10;;;;;;;;;;5072381;28;20029;-63
2022/06/15 05:34:20;;;;;;;9.07;4.50;;;;;;;;;;5064752;28;20079;-63
2022/06/15 05:36:47;;;;;;;9.80;4.45;;;;;;;;;;5065854;28;20040;-63
2022/06/15 05:39:13;;;;;;;7.50;4.05;;;;;;;;;;5058259;28;20488;-63
2022/06/15 05:41:43;;;;;;;6.38;4.13;;;;;;;;;;5065917;28;20029;-63
2022/06/15 05:46:48;;;;;;;8.82;3.90;;;;;;;;;;5071366;28;20086;-63
2022/06/15 05:49:37;;;;;;;9.05;4.07;;;;;;;;;;5068793;28;20025;-64
2022/06/15 05:52:06;;;;;;;12.23;4.40;;;;;;;;;;5058412;28;20032;-64
2022/06/15 05:54:35;;;;;;;15.38;4.88;;;;;;;;;;5060016;28;20134;-64
2022/06/15 05:57:01;;;;;;;18.23;5.53;;;;;;;;;;5070629;28;20107;-64
2022/06/15 05:59:27;;;;;;;8.52;3.92;;;;;;;;;;5057792;28;20408;-64
2022/06/15 06:01:53;;;;;;;11.95;5.25;;;;;;;;;;5065472;28;20017;-64
2022/06/15 06:04:20;;;;;;;14.23;5.07;;;;;;;;;;5066969;28;20056;-64
2022/06/15 06:06:48;;;;;;;13.80;4.90;;;;;;;;;;5067907;28;20039;-64
2022/06/15 06:09:14;;;;;;;9.00;4.18;;;;;;;;;;5067677;28;20416;-64
2022/06/15 06:11:40;;;;;;;11.82;3.85;;;;;;;;;;5059189;28;20021;-64
2022/06/15 06:14:08;;;;;;;12.73;4.43;;;;;;;;;;5061489;28;20112;-64
2022/06/15 06:16:34;;;;;;;14.73;3.92;;;;;;;;;;5065542;28;20043;-64
2022/06/15 06:19:00;;;;;;;7.75;3.80;;;;;;;;;;5059274;28;20025;-64
2022/06/15 06:21:27;;;;;;;9.73;4.40;;;;;;;;;;5056220;28;20108;-64
2022/06/15 06:23:53;;;;;;;11.30;4.03;;;;;;;;;;5059565;28;20025;-64
2022/06/15 06:26:24;;;;;;;7.60;3.78;;;;;;;;;;5056898;28;20425;-64
2022/06/15 06:28:50;;;;;;;10.45;5.22;;;;;;;;;;5055690;28;20471;-64
2022/06/15 06:31:19;;;;;;;12.05;5.30;;;;;;;;;;5055685;28;20021;-64
2022/06/15 06:33:46;;;;;;;11.68;5.40;;;;;;;;;;5055249;28;20035;-65
2022/06/15 06:36:16;;;;;;;15.93;5.35;;;;;;;;;;5054153;28;20031;-64
2022/06/15 06:38:42;;;;;;;11.07;5.03;;;;;;;;;;5056553;28;20040;-64
2022/06/15 06:41:10;;;;;;;11.63;4.82;;;;;;;;;;5062667;28;20024;-64
2022/06/15 06:43:36;;;;;;;8.43;4.43;;;;;;;;;;5055826;28;20063;-64
2022/06/15 06:46:02;;;;;;;8.98;4.25;;;;;;;;;;5056537;28;20033;-64
2022/06/15 06:48:29;;;;;;;12.95;4.70;;;;;;;;;;5053071;28;20107;-64
2022/06/15 06:50:55;;;;;;;9.57;5.53;;;;;;;;;;5058531;28;20029;-63
2022/06/15 06:53:21;;;;;;;15.82;5.22;;;;;;;;;;5053040;28;20036;-63
2022/06/15 06:55:47;;;;;;;11.80;5.18;;;;;;;;;;5056598;28;20101;-64
2022/06/15 06:58:13;;;;;;;10.77;4.68;;;;;;;;;;5057888;28;20054;-63
2022/06/15 07:00:39;;;;;;;11.77;5.45;;;;;;;;;;5053262;28;20043;-64
2022/06/15 07:03:05;;;;;;;13.68;4.70;;;;;;;;;;5053913;28;20028;-64
2022/06/15 07:05:35;;;;;;;12.52;4.68;;;;;;;;;;5053970;28;20020;-64
2022/06/15 07:08:01;;;;;;;10.77;5.00;;;;;;;;;;5054462;28;20059;-63
2022/06/15 07:10:28;;;;;;;10.52;5.28;;;;;;;;;;5055993;28;20536;-64
2022/06/15 07:12:54;;;;;;;12.07;6.20;;;;;;;;;;5057795;28;20021;-64
2022/06/15 07:15:21;;;;;;;11.65;5.90;;;;;;;;;;5055071;28;20066;-64
2022/06/15 07:17:47;;;;;;;8.32;5.88;;;;;;;;;;5054084;28;20566;-64
2022/06/15 07:20:13;;;;;;;13.18;5.90;;;;;;;;;;5051252;28;20024;-64
2022/06/15 07:22:39;;;;;;;12.05;6.47;;;;;;;;;;5054119;28;20032;-64
2022/06/15 07:25:07;;;;;;;12.95;5.55;;;;;;;;;;5051054;28;20492;-64
2022/06/15 07:27:34;;;;;;;11.68;5.72;;;;;;;;;;5052951;28;20116;-64
2022/06/15 07:30:01;;;;;;;6.90;3.78;;;;;;;;;;5054589;28;20039;-64
2022/06/15 07:32:27;;;;;;;9.23;4.70;;;;;;;;;;5053046;28;20112;-64
2022/06/15 07:34:54;;;;;;;15.25;5.15;;;;;;;;;;5052476;28;20036;-64
2022/06/15 07:37:20;;;;;;;11.55;5.35;;;;;;;;;;5053048;28;20075;-64
2022/06/15 07:39:46;;;;;;;17.50;5.68;;;;;;;;;;5051083;28;20036;-64
2022/06/15 07:42:12;;;;;;;10.27;4.53;;;;;;;;;;5050580;28;20031;-64
2022/06/15 07:44:39;;;;;;;12.07;4.50;;;;;;;;;;5051607;28;20028;-64
2022/06/15 07:49:59;;;;;;;10.27;3.97;;;;;;;;;;5050848;28;20083;-64
2022/06/15 07:52:28;;;;;;;9.18;4.20;;;;;;;;;;5053660;28;20115;-64
2022/06/15 07:54:54;;;;;;;9.65;4.32;;;;;;;;;;5051505;28;20025;-64
2022/06/15 07:57:20;;;;;;;9.93;3.80;;;;;;;;;;5056579;28;20052;-64
2022/06/15 07:59:47;;;;;;;10.18;4.68;;;;;;;;;;5053958;28;20396;-63
2022/06/15 08:02:13;;;;;;;10.68;4.78;;;;;;;;;;5054821;28;20036;-64
2022/06/15 08:04:39;;;;;;;16.23;4.75;;;;;;;;;;5055567;28;20035;-64
2022/06/15 08:07:06;;;;;;;11.25;4.93;;;;;;;;;;5053077;28;20461;-64
2022/06/15 08:09:32;;;;;;;10.85;4.35;;;;;;;;;;5050742;28;20487;-64
2022/06/15 08:12:19;;;;;;;8.18;4.40;;;;;;;;;;5052557;28;20016;-63
2022/06/15 08:14:53;;;;;;;13.77;4.88;;;;;;;;;;5054248;28;20399;-64
2022/06/15 08:17:22;;;;;;;9.68;4.13;;;;;;;;;;5054121;28;20025;-63
2022/06/15 08:19:51;;;;;;;11.10;3.90;;;;;;;;;;5054217;28;20561;-64
2022/06/15 08:22:19;;;;;;;6.55;4.00;;;;;;;;;;5051107;28;20048;-64
2022/06/15 08:24:45;;;;;;;11.27;4.13;;;;;;;;;;5051436;28;20055;-64
2022/06/15 08:27:12;;;;;;;5.85;3.40;;;;;;;;;;5050709;28;20029;-64
2022/06/15 08:29:39;;;;;;;9.35;4.20;;;;;;;;;;5051633;28;20048;-64
2022/06/15 08:32:05;;;;;;;7.78;3.95;;;;;;;;;;5052569;28;20024;-64
2022/06/15 08:34:36;;;;;;;13.40;4.03;;;;;;;;;;5051735;28;20447;-63
2022/06/15 08:37:02;;;;;;;10.18;4.03;;;;;;;;;;5050093;28;20482;-64
2022/06/15 08:39:28;;;;;;;8.52;4.10;;;;;;;;;;5054009;28;20163;-64
2022/06/15 08:41:54;;;;;;;10.02;3.75;;;;;;;;;;5054765;28;20229;-64
2022/06/15 08:44:23;;;;;;;7.45;3.60;;;;;;;;;;5053653;28;20036;-63
2022/06/15 08:47:08;;;;;;;8.27;3.88;;;;;;;;;;5057388;28;20056;-63
2022/06/15 08:49:58;;;;;;;8.48;4.10;;;;;;;;;;5059193;28;20036;-64
2022/06/15 08:52:33;;;;;;;9.10;4.35;;;;;;;;;;5057653;28;20135;-63
2022/06/15 08:55:18;;;;;;;7.65;3.40;;;;;;;;;;5058448;28;20039;-63
2022/06/15 08:57:55;;;;;;;9.23;3.95;;;;;;;;;;5062241;28;20072;-63
2022/06/15 09:00:33;;;;;;;10.93;4.03;;;;;;;;;;5060219;28;20025;-63
2022/06/15 09:03:13;;;;;;;10.57;3.35;;;;;;;;;;5061692;28;20032;-63
2022/06/15 09:05:47;;;;;;;11.50;3.70;;;;;;;;;;5058028;28;20041;-64
2022/06/15 09:08:16;;;;;;;9.27;3.88;;;;;;;;;;5059160;28;20530;-63
2022/06/15 09:11:01;;;;;;;8.68;3.47;;;;;;;;;;5055904;28;20066;-63
2022/06/15 09:13:56;;;;;;;10.52;3.50;;;;;;;;;;5056779;28;20020;-63
2022/06/15 09:16:23;;;;;;;11.88;4.03;;;;;;;;;;5047352;28;20037;-63
2022/06/15 09:18:51;;;;;;;10.57;3.63;;;;;;;;;;5055488;28;20123;-63
2022/06/15 09:21:24;;;;;;;9.45;3.58;;;;;;;;;;5069784;28;20404;-64
2022/06/15 09:23:50;;;;;;;;;;;;;;;;;;5056906;28;20116;-63
2022/06/15 09:26:22;;;;;;;7.97;3.70;;;;;;;;;;5055421;28;19936;-63
2022/06/15 09:29:00;;;;;;;10.18;4.03;;;;;;;;;;5052465;28;20033;-64
2022/06/15 09:31:28;;;;;;;9.20;3.92;;;;;;;;;;5056285;28;20036;-63
2022/06/15 09:33:59;;;;;;;9.20;4.28;;;;;;;;;;5056580;28;20059;-64
2022/06/15 09:36:31;;;;;;;12.73;3.95;;;;;;;;;;5056161;28;20033;-64
2022/06/15 09:38:57;;;;;;;10.05;3.92;;;;;;;;;;5056272;28;20028;-63
2022/06/15 09:41:26;;;;;;;11.95;3.25;;;;;;;;;;5057046;28;20112;-63
2022/06/15 09:44:05;;;;;;;11.13;4.10;;;;;;;;;;5055162;28;20036;-63
2022/06/15 09:46:54;;;;;;;9.20;3.20;;;;;;;;;;5053490;28;20484;-63
2022/06/15 09:49:39;;;;;;;11.75;4.30;;;;;;;;;;5057740;28;20029;-63
2022/06/15 09:52:07;;;;;;;10.18;4.38;;;;;;;;;;5054168;28;20041;-63
2022/06/15 09:54:46;;;;;;;10.98;4.47;;;;;;;;;;5054728;28;20512;-63
2022/06/15 09:57:13;;;;;;;16.88;4.30;;;;;;;;;;5055966;28;20052;-64
2022/06/15 09:59:39;;;;;;;11.77;4.22;;;;;;;;;;5055841;28;20040;-63
2022/06/15 10:02:07;;;;;;;10.77;4.05;;;;;;;;;;5056503;28;20036;-63
2022/06/15 10:04:36;;;;;;;9.38;3.88;;;;;;;;;;5059262;28;20561;-64
2022/06/15 10:07:11;;;;;;;10.05;4.28;;;;;;;;;;5055670;28;20064;-63
2022/06/15 10:09:39;;;;;;;7.35;4.20;;;;;;;;;;5054982;28;20029;-63
2022/06/15 10:15:12;;;;;;;9.05;3.80;;;;;;;;;;5056113;28;20044;-63
2022/06/15 10:17:41;;;;;;;6.60;3.65;;;;;;;;;;5056721;28;20068;-64
2022/06/15 10:20:19;;;;;;;13.85;4.22;;;;;;;;;;5060869;28;20040;-64
2022/06/15 10:22:45;;;;;;;10.63;3.75;;;;;;;;;;5056320;28;20032;-64
2022/06/15 10:25:17;;;;;;;8.50;3.47;;;;;;;;;;5054537;28;20453;-65
2022/06/15 10:27:43;;;;;;;11.30;3.55;;;;;;;;;;5054685;28;20500;-65
2022/06/15 10:30:12;;;;;;;7.75;3.60;;;;;;;;;;5050784;28;20086;-65
2022/06/15 10:32:59;;;;;;;7.45;3.00;;;;;;;;;;5052659;28;20079;-65
2022/06/15 10:35:26;;;;;;;11.90;4.32;;;;;;;;;;5053527;28;20038;-65
2022/06/15 10:37:54;;;;;;;8.20;3.53;;;;;;;;;;5055093;28;20033;-65
2022/06/15 10:40:23;;;;;;;11.50;3.90;;;;;;;;;;5051047;28;20059;-65
2022/06/15 10:42:53;;;;;;;9.32;3.42;;;;;;;;;;5054195;28;20041;-66
2022/06/15 10:45:19;;;;;;;4.85;2.88;;;;;;;;;;5056015;28;20405;-64
2022/06/15 10:47:54;;;;;;;10.45;2.92;;;;;;;;;;5052306;28;20036;-64
2022/06/15 10:50:26;;;;;;;10.38;3.35;;;;;;;;;;5055378;28;20574;-64
2022/06/15 10:53:04;;;;;;;14.98;4.38;;;;;;;;;;5055336;28;20029;-64
2022/06/15 11:04:27;;;;;;;5.68;3.00;;;;;;;;;;5048593;28;20052;-64
2022/06/15 11:06:53;;;;;;;8.48;3.13;;;;;;;;;;5047779;28;20066;-64
2022/06/15 11:09:31;;;;;;;7.55;3.08;;;;;;;;;;5052367;28;20110;-64
2022/06/15 11:12:00;;;;;;;11.07;3.10;;;;;;;;;;5058985;28;20040;-64
2022/06/15 11:14:28;;;;;;;10.27;2.88;;;;;;;;;;5055506;28;20464;-64
2022/06/15 11:19:56;;;;;;;10.40;3.10;;;;;;;;;;5052923;28;20029;-62
2022/06/15 11:22:24;;;;;;;6.47;2.97;;;;;;;;;;5056020;28;20489;-62
2022/06/15 11:25:02;;;;;;;8.23;3.00;;;;;;;;;;5050516;28;20036;-62
2022/06/15 11:27:29;;;;;;;7.25;3.17;;;;;;;;;;5053354;28;20016;-61
2022/06/15 11:30:04;;;;;;;9.30;3.08;;;;;;;;;;5052046;28;20463;-62
2022/06/15 11:32:36;;;;;;;7.45;2.92;;;;;;;;;;5052020;28;20013;-61
2022/06/15 11:35:22;;;;;;;9.05;2.92;;;;;;;;;;5056011;28;20090;-61
2022/06/15 11:37:48;;;;;;;9.68;2.85;;;;;;;;;;5054614;28;20025;-61
2022/06/15 11:40:41;;;;;;;7.68;2.75;;;;;;;;;;5059843;28;20317;-61
2022/06/15 11:43:12;;;;;;;7.80;3.05;;;;;;;;;;5056360;28;20048;-62
2022/06/15 11:45:47;;;;;;;6.20;2.38;;;;;;;;;;5058009;28;20119;-61
2022/06/15 11:48:14;;;;;;;5.57;2.05;;;;;;;;;;5051894;28;20155;-61
2022/06/15 11:50:54;;;;;;;6.95;2.42;;;;;;;;;;5053280;28;20030;-62
2022/06/15 11:53:33;;;;;;;8.10;2.28;;;;;;;;;;5054516;28;20020;-61
2022/06/15 11:56:04;;;;;;;5.72;2.65;;;;;;;;;;5047631;28;20053;-61
2022/06/15 11:58:48;;;;;;;9.80;2.70;;;;;;;;;;5049707;28;20041;-61
2022/06/15 12:01:17;;;;;;;5.30;2.40;;;;;;;;;;5051032;28;20497;-61
2022/06/15 12:03:53;;;;;;;10.13;2.88;;;;;;;;;;5051422;28;20033;-61
2022/06/15 12:06:22;;;;;;;5.72;2.40;;;;;;;;;;5051399;28;20507;-61
2022/06/15 12:08:54;;;;;;;5.68;2.38;;;;;;;;;;5050577;28;20503;-61
2022/06/15 12:14:18;;;;;;;7.13;2.20;;;;;;;;;;5047135;28;20412;-61
2022/06/15 12:16:55;;;;;;;6.10;2.50;;;;;;;;;;5049382;28;20024;-61
2022/06/15 12:19:26;;;;;;;5.85;2.47;;;;;;;;;;5048699;28;20271;-61
2022/06/15 12:22:02;;;;;;;5.13;2.42;;;;;;;;;;5048883;28;20033;-61
2022/06/15 12:24:52;;;;;;;7.10;2.50;;;;;;;;;;5047939;28;20053;-61
2022/06/15 12:27:30;;;;;;;5.63;2.40;;;;;;;;;;5051731;28;20035;-61
2022/06/15 12:30:23;;;;;;;5.47;2.70;;;;;;;;;;5052216;28;20025;-61
2022/06/15 12:33:06;;;;;;;7.43;3.17;;;;;;;;;;5038859;28;20041;-61
2022/06/15 12:35:32;;;;;;;6.45;2.40;;;;;;;;;;5050758;28;20028;-61
2022/06/15 12:38:04;;;;;;;8.38;3.58;;;;;;;;;;5051365;28;20036;-61
2022/06/15 12:40:33;;;;;;;5.88;2.65;;;;;;;;;;5048831;28;20063;-61
2022/06/15 12:43:11;;;;;;;8.05;2.67;;;;;;;;;;5050268;28;20032;-61
2022/06/15 12:45:40;;;;;;;11.23;2.38;;;;;;;;;;5043162;28;20029;-61
2022/06/15 12:48:12;;;;;;;8.32;3.33;;;;;;;;;;5041671;28;20032;-61
2022/06/15 12:50:48;;;;;;;4.20;2.70;;;;;;;;;;5045573;28;20044;-61
2022/06/15 12:53:22;;;;;;;8.95;2.65;;;;;;;;;;5042969;28;20370;-61
2022/06/15 12:55:51;;;;;;;9.13;2.90;;;;;;;;;;5044589;28;20067;-61
2022/06/15 12:58:26;;;;;;;8.07;2.60;;;;;;;;;;5051907;28;20792;-61
2022/06/15 13:00:52;;;;;;;6.40;2.50;;;;;;;;;;5051108;28;20071;-61
2022/06/15 13:03:21;;;;;;;5.70;3.22;;;;;;;;;;5052569;28;20484;-61
2022/06/15 13:05:48;;;;;;;8.07;2.47;;;;;;;;;;5047957;28;20136;-61
2022/06/15 13:08:17;;;;;;;9.52;3.20;;;;;;;;;;5048708;28;20104;-61
2022/06/15 13:10:55;;;;;;;9.48;2.92;;;;;;;;;;5050669;28;20091;-61
2022/06/15 13:13:27;;;;;;;12.38;3.05;;;;;;;;;;5048886;28;20024;-61
2022/06/15 13:15:55;;;;;;;6.30;2.38;;;;;;;;;;5048943;28;20511;-61
2022/06/15 13:18:38;;;;;;;8.77;3.25;;;;;;;;;;5048788;28;20037;-61
2022/06/15 13:21:05;;;;;;;6.18;2.10;;;;;;;;;;5049358;28;20420;-61
2022/06/15 13:23:35;;;;;;;6.25;2.53;;;;;;;;;;5055243;28;20395;-61
2022/06/15 13:26:05;;;;;;;7.13;3.17;;;;;;;;;;5050464;28;20043;-62
2022/06/15 13:28:36;;;;;;;5.82;2.67;;;;;;;;;;5052834;28;20087;-61
2022/06/15 13:31:04;;;;;;;6.70;3.03;;;;;;;;;;5056503;28;20098;-61
2022/06/15 13:33:51;;;;;;;10.45;3.33;;;;;;;;;;5052421;28;20017;-61
2022/06/15 13:36:21;;;;;;;7.53;2.60;;;;;;;;;;5055080;28;20063;-61
2022/06/15 13:38:49;;;;;;;12.25;2.72;;;;;;;;;;5051474;28;20032;-61
2022/06/15 13:41:17;;;;;;;7.47;2.60;;;;;;;;;;5056242;28;20110;-61
2022/06/15 13:43:43;;;;;;;8.70;3.08;;;;;;;;;;5053036;28;20025;-61
2022/06/15 13:46:24;;;;;;;11.93;3.63;;;;;;;;;;5052107;28;20484;-61
2022/06/15 13:48:52;;;;;;;11.23;4.22;;;;;;;;;;5054931;28;20033;-61
2022/06/15 13:51:25;;;;;;;11.52;4.05;;;;;;;;;;5054922;28;20017;-61
2022/06/15 13:53:57;;;;;;;5.10;2.70;;;;;;;;;;5052252;28;20059;-61
2022/06/15 13:56:36;;;;;;;7.17;2.93;;;;;;;;;;5054352;28;20033;-61
2022/06/15 13:59:05;;;;;;;7.57;3.90;;;;;;;;;;5052656;28;20132;-61
2022/06/15 14:02:07;;;;;;;9.55;4.32;;;;;;;;;;5053646;28;20033;-61
2022/06/15 14:04:39;;;;;;;8.88;3.80;;;;;;;;;;5019746;28;20026;-61
2022/06/15 14:07:21;;;;;;;11.25;3.85;;;;;;;;;;5015128;28;20038;-61
2022/06/15 14:09:55;;;;;;;7.15;3.72;;;;;;;;;;5015763;28;20843;-61
2022/06/15 14:12:21;;;;;;;9.65;3.78;;;;;;;;;;5012816;28;20631;-61
2022/06/15 14:15:04;;;;;;;10.70;3.63;;;;;;;;;;5020386;28;20501;-61
2022/06/15 14:17:30;;;;;;;;;;;;;;;;;;5016580;28;20028;-59
2022/06/15 14:20:01;;;;;;;12.13;5.45;;;;;;;;;;5017058;28;19913;-61
2022/06/15 14:22:27;;;;;;;10.32;3.67;;;;;;;;;;5019920;28;20045;-61
2022/06/15 14:25:15;;;;;;;12.23;3.85;;;;;;;;;;5020599;28;20046;-61
2022/06/15 14:27:41;;;;;;;11.00;4.57;;;;;;;;;;5023564;28;20060;-61
2022/06/15 14:30:17;;;;;;;13.10;4.57;;;;;;;;;;5017832;28;20071;-61
2022/06/15 14:32:44;;;;;;;9.10;3.50;;;;;;;;;;5020609;28;20506;-61
2022/06/15 14:35:20;;;;;;;10.75;4.60;;;;;;;;;;5020533;28;20049;-61
2022/06/15 14:37:50;;;;;;;12.45;4.75;;;;;;;;;;5026351;28;20041;-61
2022/06/15 14:40:31;;;;;;;9.63;4.10;;;;;;;;;;5054289;28;20017;-61
2022/06/15 14:42:58;;;;;;;10.02;4.03;;;;;;;;;;5055605;28;20048;-61
2022/06/15 14:45:44;;;;;;;11.57;4.25;;;;;;;;;;5055277;28;20471;-61
2022/06/15 14:48:23;;;;;;;10.38;3.85;;;;;;;;;;5057382;28;20020;-61
2022/06/15 14:51:04;;;;;;;13.10;4.10;;;;;;;;;;5053940;28;20039;-61
2022/06/15 14:53:30;;;;;;;10.98;3.65;;;;;;;;;;5052187;28;20037;-62
2022/06/15 14:56:00;;;;;;;9.88;4.10;;;;;;;;;;5057879;28;20024;-61
2022/06/15 14:58:26;;;;;;;9.13;4.00;;;;;;;;;;5052008;28;20041;-61
2022/06/15 15:01:05;;;;;;;12.02;3.63;;;;;;;;;;5055018;28;20447;-61
2022/06/15 15:03:32;;;;;;;10.70;4.00;;;;;;;;;;5051135;28;20033;-61
2022/06/15 15:06:03;;;;;;;6.18;3.22;;;;;;;;;;5055624;28;20051;-61
2022/06/15 15:08:29;;;;;;;12.20;3.88;;;;;;;;;;5052183;28;20028;-61
2022/06/15 15:10:57;;;;;;;8.88;3.35;;;;;;;;;;5054299;28;20044;-61
2022/06/15 15:13:27;;;;;;;12.02;3.65;;;;;;;;;;5052490;28;20445;-61
2022/06/15 15:15:55;;;;;;;6.80;3.22;;;;;;;;;;5061480;28;20056;-61
2022/06/15 15:18:23;;;;;;;10.05;3.95;;;;;;;;;;5057638;28;20102;-62
2022/06/15 15:20:51;;;;;;;6.30;3.22;;;;;;;;;;5056626;28;20098;-61
2022/06/15 15:23:17;;;;;;;12.32;3.67;;;;;;;;;;5052489;28;20021;-61
2022/06/15 15:25:48;;;;;;;8.75;3.15;;;;;;;;;;5054515;28;20342;-61
2022/06/15 15:39:34;;;;;;;5.38;3.00;;;;;;;;;;5058346;28;20036;-61